This is the latest recevied weather packets stored in our database for station/object F4ACR-10. If no packets are shown the sender has not sent any weather packets the latest 10 day(s).
| Time | Temp. | Humidity | Pressure | Rain* | Wind** | Luminosity | Snow |
|---|---|---|---|---|---|---|---|
| 1787660070 | 28.89° C | 51% | 1013.9 hPa | - | - | - | - |
| 1787659469 | 27.78° C | 55% | 1014.1 hPa | - | - | - | - |
| 1787658869 | 26.11° C | 61% | 1014.2 hPa | - | - | - | - |
| 1787658269 | 27.22° C | 54% | 1014.1 hPa | - | - | - | - |
| 1787657669 | 27.22° C | 55% | 1014.2 hPa | - | - | - | - |
| 1787657069 | 26.67° C | 58% | 1014.2 hPa | - | - | - | - |
| 1787656468 | 27.78° C | 54% | 1014.2 hPa | - | - | - | - |
| 1787655868 | 26.67° C | 55% | 1014.2 hPa | - | - | - | - |
| 1787655271 | 27.22° C | 56% | 1014.2 hPa | - | - | - | - |
| 1787655268 | 27.22° C | 56% | 1014.2 hPa | - | - | - | - |
| 1787654668 | 26.11° C | 61% | 1014.3 hPa | - | - | - | - |
| 1787654068 | 24.44° C | 65% | 1014.2 hPa | - | - | - | - |
| 1787653467 | 24.44° C | 66% | 1014.2 hPa | - | - | - | - |
| 1787652867 | 25° C | 65% | 1014.2 hPa | - | - | - | - |
| 1787652267 | 26.67° C | 60% | 1014.1 hPa | - | - | - | - |
| 1787651666 | 26.11° C | 61% | 1014.3 hPa | - | - | - | - |
| 1787651066 | 23.33° C | 73% | 1014.2 hPa | - | - | - | - |
| 1787650466 | 23.33° C | 73% | 1014.2 hPa | - | - | - | - |
| 1787649866 | 22.22° C | 76% | 1014.2 hPa | - | - | - | - |
| 1787649266 | 22.22° C | 75% | 1014 hPa | - | - | - | - |
| 1787648665 | 22.78° C | 75% | 1013.9 hPa | - | - | - | - |
| 1787648065 | 22.22° C | 76% | 1013.9 hPa | - | - | - | - |
| 1787647465 | 21.67° C | 79% | 1013.8 hPa | - | - | - | - |
| 1787646865 | 20.56° C | 84% | 1013.7 hPa | - | - | - | - |
| 1787646265 | 21.11° C | 80% | 1013.6 hPa | - | - | - | - |
* Rain since midnight (hover to see other rain measurements)
** Current wind speed in m/s (hover to see current wind gust speed)